Track Пензина Ксения

Time Latitude Longitude Accuracy (66% radius in meters) Altitude (meters) Speed (km/hour) Bearing (degrees) Battery (%) GPS flag
09:29:15 60.370951 29.556273 6 90 0 181.7158203125 42 1 delete
09:29:06 60.370947 29.556250 4 80 0 181.7158203125 42 1 delete
09:29:03 60.370936 29.556295 4 79 0 181.7158203125 42 1 delete
09:29:01 60.370929 29.556335 4 79 0 181.7158203125 42 1 delete
09:28:51 60.370911 29.556446 8 70 0 163.00477600098 42 1 delete
09:28:38 60.370929 29.556405 8 71 0 186.9681854248 42 1 delete
09:28:26 60.370929 29.556375 6 77 0 186.9681854248 42 1 delete
09:28:13 60.370934 29.556429 6 77 0 186.9681854248 42 1 delete
09:28:02 60.370931 29.556428 6 77 0 186.9681854248 42 1 delete
09:28:00 60.370935 29.556421 6 78 0 186.9681854248 42 1 delete
09:27:48 60.370942 29.556390 6 79 0 186.9681854248 42 1 delete
09:27:43 60.370943 29.556340 8 79 0 186.9681854248 42 1 delete
09:27:36 60.370953 29.556301 4 82 0 186.9681854248 42 1 delete
09:27:24 60.370975 29.556338 6 78 0 186.9681854248 42 1 delete
09:27:18 60.370978 29.556278 6 74 0 186.9681854248 42 1 delete
09:27:12 60.370984 29.556193 12 85 0 186.9681854248 42 1 delete
09:27:08 60.370986 29.556187 8 93 0 186.9681854248 42 1 delete
09:26:59 60.370966 29.556251 6 88 0 186.9681854248 42 1 delete
09:26:47 60.370973 29.556271 8 87 0 186.9681854248 42 1 delete
09:26:34 60.370988 29.556281 6 79 0 186.9681854248 42 1 delete
09:26:22 60.370959 29.556258 8 78 0 186.9681854248 42 1 delete
09:26:10 60.370954 29.556220 4 85 0 186.9681854248 42 1 delete
09:26:00 60.370976 29.556285 6 81 0 186.9681854248 42 1 delete
09:25:57 60.370974 29.556313 6 76 0 186.9681854248 42 1 delete
09:25:45 60.370965 29.556340 6 77 0 186.9681854248 42 1 delete
09:25:33 60.370943 29.556339 6 77 0 186.9681854248 42 1 delete
09:25:25 60.370950 29.556362 6 80 0 186.9681854248 42 1 delete
09:25:21 60.370969 29.556335 6 78 0 186.9681854248 42 1 delete
09:25:09 60.370972 29.556276 6 81 0 186.9681854248 42 1 delete
09:24:57 60.370942 29.556309 12 71 0.42170426249504 186.9681854248 42 1 delete
09:24:45 60.370933 29.556332 6 72 0 219.4896697998 42 1 delete
09:24:44 60.370936 29.556336 6 72 0 219.4896697998 42 1 delete
09:24:32 60.370944 29.556381 12 76 0.31231626868248 261.48657226562 42 1 delete
09:24:26 60.370967 29.556393 6 73 0 256.06280517578 42 1 delete
09:24:20 60.371030 29.556347 8 80 0 256.06280517578 42 1 delete
09:24:08 60.371024 29.556359 8 92 0 45.962863922119 42 1 delete
09:24:06 60.371013 29.556361 8 88 0 45.962863922119 42 1 delete
09:23:56 60.370964 29.556372 4 70 0 211.64573669434 42 1 delete
09:23:51 60.370970 29.556411 6 59 0 211.64573669434 42 1 delete
09:23:43 60.371001 29.556348 6 83 0 211.64573669434 42 1 delete
09:23:30 60.371003 29.556332 6 86 0 211.64573669434 42 1 delete
09:23:18 60.371028 29.556404 8 83 0 211.64573669434 42 1 delete
09:23:10 60.371012 29.556376 4 87 0 211.64573669434 42 1 delete
09:23:05 60.370990 29.556317 6 88 0 211.64573669434 42 1 delete
09:22:58 60.370982 29.556304 6 89 0 211.64573669434 42 1 delete
09:22:51 60.370981 29.556318 4 91 0 211.64573669434 42 1 delete
09:22:39 60.370938 29.556378 8 67 0 211.64573669434 42 1 delete
09:22:26 60.370955 29.556338 6 79 0 211.64573669434 42 1 delete
09:22:13 60.370926 29.556326 6 77 0 224.08819580078 42 1 delete
09:22:00 60.370941 29.556342 6 79 0 198.79362487793 42 1 delete